sensor_id;sensor_type;location;lat;lon;timestamp;pressure;altitude;pressure_sealevel;temperature;humidity
250;BME280;109;19.806;-70.704;2023-03-22T00:00:38;101717.06;;;24.92;64.05
250;BME280;109;19.806;-70.704;2023-03-22T00:03:04;101707.72;;;25.24;64.16
250;BME280;109;19.806;-70.704;2023-03-22T00:05:31;101716.25;;;25.35;64.67
250;BME280;109;19.806;-70.704;2023-03-22T00:07:58;101714.63;;;25.52;63.65
250;BME280;109;19.806;-70.704;2023-03-22T00:10:26;101721.22;;;25.44;63.35
250;BME280;109;19.806;-70.704;2023-03-22T00:12:54;101719.75;;;25.58;63.47
250;BME280;109;19.806;-70.704;2023-03-22T00:15:20;101725.47;;;25.27;61.83
250;BME280;109;19.806;-70.704;2023-03-22T00:17:47;101724.06;;;25.18;61.83
250;BME280;109;19.806;-70.704;2023-03-22T00:20:15;101743.41;;;25.03;61.16
250;BME280;109;19.806;-70.704;2023-03-22T00:22:49;101739.34;;;25.38;60.81
250;BME280;109;19.806;-70.704;2023-03-22T00:25:16;101752.28;;;25.27;60.75
250;BME280;109;19.806;-70.704;2023-03-22T00:27:43;101754.94;;;25.05;60.88
250;BME280;109;19.806;-70.704;2023-03-22T00:30:10;101751.88;;;25.14;61.15
250;BME280;109;19.806;-70.704;2023-03-22T00:32:37;101755.31;;;25.18;61.66
250;BME280;109;19.806;-70.704;2023-03-22T00:35:05;101766.03;;;25.18;61.41
250;BME280;109;19.806;-70.704;2023-03-22T00:37:32;101768.34;;;25.27;61.21
250;BME280;109;19.806;-70.704;2023-03-22T00:39:59;101774.78;;;25.23;60.87
250;BME280;109;19.806;-70.704;2023-03-22T00:42:26;101782.53;;;25.07;61.42
250;BME280;109;19.806;-70.704;2023-03-22T00:44:52;101783.16;;;25.14;61.70
250;BME280;109;19.806;-70.704;2023-03-22T00:47:19;101793.00;;;25.13;61.35
250;BME280;109;19.806;-70.704;2023-03-22T00:49:45;101790.75;;;25.02;61.72
250;BME280;109;19.806;-70.704;2023-03-22T00:52:12;101793.44;;;25.02;61.90
250;BME280;109;19.806;-70.704;2023-03-22T00:54:38;101805.25;;;25.20;61.27
250;BME280;109;19.806;-70.704;2023-03-22T00:57:05;101806.19;;;25.19;61.21
250;BME280;109;19.806;-70.704;2023-03-22T00:59:32;101826.03;;;25.14;61.27
250;BME280;109;19.806;-70.704;2023-03-22T01:02:04;101829.31;;;25.22;61.34
250;BME280;109;19.806;-70.704;2023-03-22T01:04:32;101832.38;;;25.11;61.31
250;BME280;109;19.806;-70.704;2023-03-22T01:07:01;101844.66;;;25.17;61.84
250;BME280;109;19.806;-70.704;2023-03-22T01:09:38;101846.94;;;25.04;61.84
250;BME280;109;19.806;-70.704;2023-03-22T01:12:05;101851.22;;;25.09;61.83
250;BME280;109;19.806;-70.704;2023-03-22T01:14:39;101860.75;;;25.17;61.77
250;BME280;109;19.806;-70.704;2023-03-22T01:17:06;101864.19;;;25.20;61.51
250;BME280;109;19.806;-70.704;2023-03-22T01:19:39;101861.50;;;25.20;61.83
250;BME280;109;19.806;-70.704;2023-03-22T01:22:07;101868.84;;;25.38;61.25
250;BME280;109;19.806;-70.704;2023-03-22T01:24:41;101859.66;;;25.22;61.80
250;BME280;109;19.806;-70.704;2023-03-22T01:27:07;101870.81;;;25.10;62.01
250;BME280;109;19.806;-70.704;2023-03-22T01:29:41;101871.75;;;25.09;61.96
250;BME280;109;19.806;-70.704;2023-03-22T01:32:07;101868.00;;;25.13;62.35
250;BME280;109;19.806;-70.704;2023-03-22T01:34:40;101873.16;;;25.19;62.51
250;BME280;109;19.806;-70.704;2023-03-22T01:37:08;101870.75;;;25.11;61.92
250;BME280;109;19.806;-70.704;2023-03-22T01:39:44;101877.44;;;25.00;62.15
250;BME280;109;19.806;-70.704;2023-03-22T01:42:14;101889.69;;;25.07;61.81
250;BME280;109;19.806;-70.704;2023-03-22T01:47:58;101890.00;;;24.98;61.71
250;BME280;109;19.806;-70.704;2023-03-22T01:50:37;101891.59;;;25.03;61.70
250;BME280;109;19.806;-70.704;2023-03-22T01:53:12;101890.78;;;25.01;61.64
250;BME280;109;19.806;-70.704;2023-03-22T01:55:39;101893.25;;;25.07;61.77
250;BME280;109;19.806;-70.704;2023-03-22T01:58:21;101900.31;;;24.85;62.12
250;BME280;109;19.806;-70.704;2023-03-22T02:00:58;101901.53;;;24.77;62.24
250;BME280;109;19.806;-70.704;2023-03-22T02:04:10;101909.34;;;24.83;62.84
250;BME280;109;19.806;-70.704;2023-03-22T02:06:45;101906.66;;;24.83;62.53
250;BME280;109;19.806;-70.704;2023-03-22T02:09:16;101918.59;;;24.97;62.30
250;BME280;109;19.806;-70.704;2023-03-22T02:14:52;101919.47;;;24.73;62.34
250;BME280;109;19.806;-70.704;2023-03-22T02:29:54;101925.91;;;24.67;62.58
250;BME280;109;19.806;-70.704;2023-03-22T02:35:57;101926.94;;;24.63;62.32
250;BME280;109;19.806;-70.704;2023-03-22T02:44:45;101935.66;;;24.70;62.25
250;BME280;109;19.806;-70.704;2023-03-22T02:47:29;101942.81;;;24.69;62.09
250;BME280;109;19.806;-70.704;2023-03-22T02:50:28;101943.59;;;24.71;62.34
250;BME280;109;19.806;-70.704;2023-03-22T02:53:19;101944.47;;;24.72;62.15
250;BME280;109;19.806;-70.704;2023-03-22T02:56:03;101944.56;;;24.70;61.97
250;BME280;109;19.806;-70.704;2023-03-22T02:58:43;101946.72;;;24.59;61.94
250;BME280;109;19.806;-70.704;2023-03-22T03:01:40;101946.66;;;24.61;62.28
250;BME280;109;19.806;-70.704;2023-03-22T03:04:18;101950.47;;;24.54;62.09
250;BME280;109;19.806;-70.704;2023-03-22T03:06:57;101945.59;;;24.40;62.24
250;BME280;109;19.806;-70.704;2023-03-22T03:09:32;101947.25;;;24.44;62.27
250;BME280;109;19.806;-70.704;2023-03-22T03:11:59;101948.19;;;24.43;62.35
250;BME280;109;19.806;-70.704;2023-03-22T03:14:32;101949.19;;;24.39;62.23
250;BME280;109;19.806;-70.704;2023-03-22T03:17:21;101948.28;;;24.40;62.58
250;BME280;109;19.806;-70.704;2023-03-22T03:20:29;101948.47;;;24.34;62.25
250;BME280;109;19.806;-70.704;2023-03-22T03:32:14;101953.47;;;24.45;62.12
250;BME280;109;19.806;-70.704;2023-03-22T03:35:03;101959.91;;;24.39;62.22
250;BME280;109;19.806;-70.704;2023-03-22T03:37:46;101955.06;;;24.50;62.21
250;BME280;109;19.806;-70.704;2023-03-22T03:40:27;101952.72;;;24.41;62.14
250;BME280;109;19.806;-70.704;2023-03-22T03:43:15;101953.81;;;24.34;62.46
250;BME280;109;19.806;-70.704;2023-03-22T03:45:50;101957.75;;;24.50;62.05
250;BME280;109;19.806;-70.704;2023-03-22T03:48:20;101953.72;;;24.63;61.97
250;BME280;109;19.806;-70.704;2023-03-22T03:50:56;101959.94;;;24.64;61.69
250;BME280;109;19.806;-70.704;2023-03-22T03:53:23;101949.28;;;24.62;61.84
250;BME280;109;19.806;-70.704;2023-03-22T03:55:56;101954.91;;;24.55;61.99
250;BME280;109;19.806;-70.704;2023-03-22T03:58:24;101956.75;;;24.53;61.77
250;BME280;109;19.806;-70.704;2023-03-22T04:01:05;101961.59;;;24.42;62.20
250;BME280;109;19.806;-70.704;2023-03-22T04:03:38;101965.56;;;24.30;62.40
250;BME280;109;19.806;-70.704;2023-03-22T04:06:25;101958.38;;;24.32;62.49
250;BME280;109;19.806;-70.704;2023-03-22T04:09:01;101956.44;;;24.35;62.37
250;BME280;109;19.806;-70.704;2023-03-22T04:11:39;101956.16;;;24.45;62.46
250;BME280;109;19.806;-70.704;2023-03-22T04:14:14;101952.19;;;24.56;62.22
250;BME280;109;19.806;-70.704;2023-03-22T04:16:40;101950.44;;;24.55;61.95
250;BME280;109;19.806;-70.704;2023-03-22T04:19:18;101950.72;;;24.46;62.25
250;BME280;109;19.806;-70.704;2023-03-22T04:21:51;101954.28;;;24.20;62.51
250;BME280;109;19.806;-70.704;2023-03-22T04:24:19;101950.22;;;24.35;62.18
250;BME280;109;19.806;-70.704;2023-03-22T04:26:53;101940.38;;;24.35;62.12
250;BME280;109;19.806;-70.704;2023-03-22T04:29:23;101949.19;;;24.39;62.14
250;BME280;109;19.806;-70.704;2023-03-22T04:32:03;101946.72;;;24.33;62.03
250;BME280;109;19.806;-70.704;2023-03-22T04:34:41;101952.91;;;24.35;61.83
250;BME280;109;19.806;-70.704;2023-03-22T04:37:17;101953.63;;;24.40;61.50
250;BME280;109;19.806;-70.704;2023-03-22T04:39:55;101948.69;;;24.28;61.28
250;BME280;109;19.806;-70.704;2023-03-22T04:42:39;101945.31;;;24.21;61.54
250;BME280;109;19.806;-70.704;2023-03-22T04:45:34;101947.13;;;24.21;61.73
250;BME280;109;19.806;-70.704;2023-03-22T04:48:08;101941.94;;;24.16;61.53
250;BME280;109;19.806;-70.704;2023-03-22T04:50:37;101941.03;;;24.16;61.56
250;BME280;109;19.806;-70.704;2023-03-22T04:53:11;101940.16;;;24.15;61.50
250;BME280;109;19.806;-70.704;2023-03-22T04:55:38;101942.78;;;24.18;61.21
250;BME280;109;19.806;-70.704;2023-03-22T04:58:11;101940.34;;;24.09;61.33
250;BME280;109;19.806;-70.704;2023-03-22T05:00:38;101942.41;;;24.01;61.22
250;BME280;109;19.806;-70.704;2023-03-22T05:03:14;101939.50;;;24.07;60.90
250;BME280;109;19.806;-70.704;2023-03-22T05:05:56;101933.41;;;24.03;61.18
250;BME280;109;19.806;-70.704;2023-03-22T05:08:40;101918.38;;;23.99;61.53
250;BME280;109;19.806;-70.704;2023-03-22T05:11:16;101925.00;;;23.88;61.24
250;BME280;109;19.806;-70.704;2023-03-22T05:14:05;101929.94;;;23.72;61.39
250;BME280;109;19.806;-70.704;2023-03-22T05:16:39;101917.13;;;23.83;61.15
250;BME280;109;19.806;-70.704;2023-03-22T05:19:07;101906.63;;;23.77;61.21
250;BME280;109;19.806;-70.704;2023-03-22T05:21:54;101902.03;;;23.81;61.32
250;BME280;109;19.806;-70.704;2023-03-22T05:24:58;101902.88;;;23.83;61.22
250;BME280;109;19.806;-70.704;2023-03-22T05:27:32;101899.75;;;23.96;60.51
250;BME280;109;19.806;-70.704;2023-03-22T05:30:09;101899.31;;;23.82;60.77
250;BME280;109;19.806;-70.704;2023-03-22T05:32:49;101901.06;;;23.83;60.78
250;BME280;109;19.806;-70.704;2023-03-22T05:35:22;101897.47;;;23.84;60.82
250;BME280;109;19.806;-70.704;2023-03-22T05:37:52;101896.69;;;23.81;60.18
250;BME280;109;19.806;-70.704;2023-03-22T05:40:28;101885.03;;;23.83;60.28
250;BME280;109;19.806;-70.704;2023-03-22T05:43:14;101890.38;;;23.83;60.43
250;BME280;109;19.806;-70.704;2023-03-22T05:45:57;101892.28;;;23.80;60.46
250;BME280;109;19.806;-70.704;2023-03-22T05:48:42;101894.09;;;23.79;60.33
250;BME280;109;19.806;-70.704;2023-03-22T05:51:16;101889.50;;;23.83;60.33
250;BME280;109;19.806;-70.704;2023-03-22T05:53:48;101891.94;;;23.90;60.04
250;BME280;109;19.806;-70.704;2023-03-22T05:56:26;101892.47;;;24.01;59.66
250;BME280;109;19.806;-70.704;2023-03-22T05:59:04;101891.38;;;24.07;59.58
250;BME280;109;19.806;-70.704;2023-03-22T06:01:37;101884.22;;;24.08;59.12
250;BME280;109;19.806;-70.704;2023-03-22T06:04:24;101876.94;;;24.13;58.94
250;BME280;109;19.806;-70.704;2023-03-22T06:07:07;101878.25;;;23.99;58.94
250;BME280;109;19.806;-70.704;2023-03-22T06:09:54;101879.09;;;24.01;59.00
250;BME280;109;19.806;-70.704;2023-03-22T06:12:30;101869.28;;;24.02;59.05
250;BME280;109;19.806;-70.704;2023-03-22T06:15:11;101865.69;;;24.03;58.83
250;BME280;109;19.806;-70.704;2023-03-22T06:17:59;101860.00;;;24.12;58.58
250;BME280;109;19.806;-70.704;2023-03-22T06:20:36;101862.91;;;24.06;58.38
250;BME280;109;19.806;-70.704;2023-03-22T06:23:23;101857.78;;;23.98;58.46
250;BME280;109;19.806;-70.704;2023-03-22T06:25:56;101856.91;;;23.98;58.60
250;BME280;109;19.806;-70.704;2023-03-22T06:28:23;101851.38;;;24.04;58.31
250;BME280;109;19.806;-70.704;2023-03-22T06:31:09;101847.50;;;24.13;57.83
250;BME280;109;19.806;-70.704;2023-03-22T06:33:55;101847.66;;;24.08;58.10
250;BME280;109;19.806;-70.704;2023-03-22T06:36:35;101837.00;;;24.06;58.07
250;BME280;109;19.806;-70.704;2023-03-22T06:39:16;101830.69;;;23.83;58.18
250;BME280;109;19.806;-70.704;2023-03-22T06:41:50;101823.25;;;23.92;57.98
250;BME280;109;19.806;-70.704;2023-03-22T06:44:38;101817.13;;;23.89;58.13
250;BME280;109;19.806;-70.704;2023-03-22T06:47:24;101811.72;;;23.90;57.97
250;BME280;109;19.806;-70.704;2023-03-22T06:50:05;101822.16;;;23.98;57.68
250;BME280;109;19.806;-70.704;2023-03-22T06:52:58;101809.72;;;23.97;57.78
250;BME280;109;19.806;-70.704;2023-03-22T06:55:30;101809.81;;;23.94;57.30
250;BME280;109;19.806;-70.704;2023-03-22T06:58:04;101813.25;;;23.97;57.34
250;BME280;109;19.806;-70.704;2023-03-22T07:00:38;101808.63;;;24.02;56.96
250;BME280;109;19.806;-70.704;2023-03-22T07:03:06;101803.00;;;24.10;57.05
250;BME280;109;19.806;-70.704;2023-03-22T07:05:58;101808.19;;;24.16;56.68
250;BME280;109;19.806;-70.704;2023-03-22T07:08:34;101801.06;;;24.15;56.79
250;BME280;109;19.806;-70.704;2023-03-22T07:11:19;101805.53;;;24.15;56.66
250;BME280;109;19.806;-70.704;2023-03-22T07:13:57;101803.09;;;24.07;56.58
250;BME280;109;19.806;-70.704;2023-03-22T07:16:46;101805.72;;;24.09;56.59
250;BME280;109;19.806;-70.704;2023-03-22T07:19:21;101802.09;;;24.11;56.85
250;BME280;109;19.806;-70.704;2023-03-22T07:21:47;101804.91;;;24.06;56.81
250;BME280;109;19.806;-70.704;2023-03-22T07:24:21;101802.56;;;23.97;56.44
250;BME280;109;19.806;-70.704;2023-03-22T07:26:47;101799.19;;;23.92;56.93
250;BME280;109;19.806;-70.704;2023-03-22T07:29:25;101805.56;;;23.88;57.06
250;BME280;109;19.806;-70.704;2023-03-22T07:31:58;101801.59;;;24.00;56.89
250;BME280;109;19.806;-70.704;2023-03-22T07:34:31;101801.50;;;24.03;56.57
250;BME280;109;19.806;-70.704;2023-03-22T07:37:08;101801.91;;;23.91;56.48
250;BME280;109;19.806;-70.704;2023-03-22T07:39:40;101794.97;;;23.85;56.89
250;BME280;109;19.806;-70.704;2023-03-22T07:42:07;101792.03;;;23.93;57.08
250;BME280;109;19.806;-70.704;2023-03-22T07:44:41;101806.75;;;24.06;56.71
250;BME280;109;19.806;-70.704;2023-03-22T07:47:23;101798.97;;;23.98;56.66
250;BME280;109;19.806;-70.704;2023-03-22T07:50:27;101799.38;;;23.86;57.19
250;BME280;109;19.806;-70.704;2023-03-22T07:53:05;101796.72;;;23.86;56.89
250;BME280;109;19.806;-70.704;2023-03-22T07:55:38;101802.09;;;23.85;57.07
250;BME280;109;19.806;-70.704;2023-03-22T07:58:14;101802.09;;;23.85;56.97
250;BME280;109;19.806;-70.704;2023-03-22T08:00:48;101799.34;;;23.88;57.08
250;BME280;109;19.806;-70.704;2023-03-22T08:03:34;101793.22;;;23.84;57.06
250;BME280;109;19.806;-70.704;2023-03-22T08:06:19;101783.38;;;23.85;56.60
250;BME280;109;19.806;-70.704;2023-03-22T08:08:52;101784.13;;;23.90;56.54
250;BME280;109;19.806;-70.704;2023-03-22T08:11:19;101786.53;;;23.71;56.73
250;BME280;109;19.806;-70.704;2023-03-22T08:13:53;101775.47;;;23.82;56.88
250;BME280;109;19.806;-70.704;2023-03-22T08:16:20;101772.66;;;23.86;56.92
250;BME280;109;19.806;-70.704;2023-03-22T08:18:55;101780.72;;;23.85;57.02
250;BME280;109;19.806;-70.704;2023-03-22T08:21:23;101778.31;;;23.77;57.15
250;BME280;109;19.806;-70.704;2023-03-22T08:23:58;101787.25;;;23.76;57.15
250;BME280;109;19.806;-70.704;2023-03-22T08:26:42;101784.47;;;23.79;57.18
250;BME280;109;19.806;-70.704;2023-03-22T08:29:26;101780.34;;;23.95;57.09
250;BME280;109;19.806;-70.704;2023-03-22T08:31:58;101781.78;;;24.05;56.87
250;BME280;109;19.806;-70.704;2023-03-22T08:34:28;101789.09;;;24.00;56.71
250;BME280;109;19.806;-70.704;2023-03-22T08:37:04;101788.41;;;23.94;56.63
250;BME280;109;19.806;-70.704;2023-03-22T08:39:32;101782.28;;;23.92;56.88
250;BME280;109;19.806;-70.704;2023-03-22T08:42:31;101781.25;;;23.94;56.94
250;BME280;109;19.806;-70.704;2023-03-22T08:45:18;101785.63;;;23.97;56.80
250;BME280;109;19.806;-70.704;2023-03-22T08:47:59;101779.75;;;23.87;57.17
250;BME280;109;19.806;-70.704;2023-03-22T08:50:47;101778.53;;;23.96;57.21
250;BME280;109;19.806;-70.704;2023-03-22T08:53:27;101768.13;;;23.88;57.48
250;BME280;109;19.806;-70.704;2023-03-22T08:56:28;101770.13;;;23.82;57.50
250;BME280;109;19.806;-70.704;2023-03-22T08:59:11;101763.03;;;23.81;57.60
250;BME280;109;19.806;-70.704;2023-03-22T09:02:13;101765.69;;;23.81;57.58
250;BME280;109;19.806;-70.704;2023-03-22T09:04:46;101756.78;;;23.80;58.08
250;BME280;109;19.806;-70.704;2023-03-22T09:07:13;101765.41;;;23.90;58.01
250;BME280;109;19.806;-70.704;2023-03-22T09:09:54;101769.16;;;23.84;57.83
250;BME280;109;19.806;-70.704;2023-03-22T09:12:27;101770.34;;;23.76;58.35
250;BME280;109;19.806;-70.704;2023-03-22T09:14:54;101769.78;;;23.66;58.71
250;BME280;109;19.806;-70.704;2023-03-22T09:17:29;101771.25;;;23.75;58.71
250;BME280;109;19.806;-70.704;2023-03-22T09:19:56;101770.03;;;23.85;58.67
250;BME280;109;19.806;-70.704;2023-03-22T09:22:30;101776.66;;;23.73;59.07
250;BME280;109;19.806;-70.704;2023-03-22T09:24:58;101780.47;;;23.66;58.97
250;BME280;109;19.806;-70.704;2023-03-22T09:27:32;101778.50;;;23.71;59.03
250;BME280;109;19.806;-70.704;2023-03-22T09:29:59;101780.31;;;23.70;59.34
250;BME280;109;19.806;-70.704;2023-03-22T09:32:33;101776.97;;;23.64;59.44
250;BME280;109;19.806;-70.704;2023-03-22T09:35:02;101788.38;;;23.69;59.25
250;BME280;109;19.806;-70.704;2023-03-22T09:37:50;101800.44;;;23.81;58.97
250;BME280;109;19.806;-70.704;2023-03-22T09:40:31;101792.91;;;23.67;59.35
250;BME280;109;19.806;-70.704;2023-03-22T09:43:06;101804.75;;;23.58;59.62
250;BME280;109;19.806;-70.704;2023-03-22T09:45:54;101810.00;;;23.61;59.46
250;BME280;109;19.806;-70.704;2023-03-22T09:48:40;101812.53;;;23.66;59.34
250;BME280;109;19.806;-70.704;2023-03-22T09:51:42;101812.41;;;23.69;59.21
250;BME280;109;19.806;-70.704;2023-03-22T09:54:32;101816.13;;;23.65;59.31
250;BME280;109;19.806;-70.704;2023-03-22T09:57:29;101809.50;;;23.77;58.95
250;BME280;109;19.806;-70.704;2023-03-22T10:05:19;101820.97;;;23.80;58.67
250;BME280;109;19.806;-70.704;2023-03-22T10:10:41;101828.00;;;23.83;58.51
250;BME280;109;19.806;-70.704;2023-03-22T10:15:54;101828.94;;;23.82;58.67
250;BME280;109;19.806;-70.704;2023-03-22T10:19:00;101826.13;;;23.86;58.49
250;BME280;109;19.806;-70.704;2023-03-22T10:21:36;101828.69;;;23.89;58.38
250;BME280;109;19.806;-70.704;2023-03-22T10:24:15;101833.16;;;23.89;58.30
250;BME280;109;19.806;-70.704;2023-03-22T10:29:38;101841.28;;;23.86;58.47
250;BME280;109;19.806;-70.704;2023-03-22T10:33:18;101846.03;;;23.78;58.49
250;BME280;109;19.806;-70.704;2023-03-22T10:35:31;101853.34;;;23.71;58.61
250;BME280;109;19.806;-70.704;2023-03-22T10:38:00;101850.53;;;23.76;58.44
250;BME280;109;19.806;-70.704;2023-03-22T10:40:35;101858.38;;;23.80;58.33
250;BME280;109;19.806;-70.704;2023-03-22T10:43:06;101857.72;;;23.74;58.45
250;BME280;109;19.806;-70.704;2023-03-22T10:45:42;101850.53;;;23.76;58.60
250;BME280;109;19.806;-70.704;2023-03-22T10:50:48;101854.78;;;23.81;58.52
250;BME280;109;19.806;-70.704;2023-03-22T10:53:29;101846.72;;;23.83;58.27
250;BME280;109;19.806;-70.704;2023-03-22T10:55:58;101848.28;;;23.90;58.25
250;BME280;109;19.806;-70.704;2023-03-22T10:58:29;101848.13;;;23.94;58.26
250;BME280;109;19.806;-70.704;2023-03-22T11:01:06;101852.50;;;23.97;58.16
250;BME280;109;19.806;-70.704;2023-03-22T11:03:46;101856.88;;;23.99;58.40
250;BME280;109;19.806;-70.704;2023-03-22T11:06:19;101854.06;;;24.04;58.11
250;BME280;109;19.806;-70.704;2023-03-22T11:08:59;101854.09;;;24.02;58.14
250;BME280;109;19.806;-70.704;2023-03-22T11:11:33;101857.69;;;24.01;58.05
250;BME280;109;19.806;-70.704;2023-03-22T11:14:13;101865.63;;;24.04;58.33
250;BME280;109;19.806;-70.704;2023-03-22T11:19:30;101865.25;;;24.15;57.94
250;BME280;109;19.806;-70.704;2023-03-22T11:21:58;101869.88;;;24.10;57.94
250;BME280;109;19.806;-70.704;2023-03-22T11:24:26;101868.53;;;24.25;57.92
250;BME280;109;19.806;-70.704;2023-03-22T11:27:27;101877.41;;;24.25;57.84
250;BME280;109;19.806;-70.704;2023-03-22T11:30:07;101871.69;;;24.36;57.73
250;BME280;109;19.806;-70.704;2023-03-22T11:32:42;101870.69;;;24.40;57.66
250;BME280;109;19.806;-70.704;2023-03-22T11:35:21;101866.84;;;24.47;57.28
250;BME280;109;19.806;-70.704;2023-03-22T11:37:53;101870.13;;;24.55;57.22
250;BME280;109;19.806;-70.704;2023-03-22T11:40:47;101879.28;;;24.74;56.83
250;BME280;109;19.806;-70.704;2023-03-22T11:43:27;101877.41;;;24.77;56.54
250;BME280;109;19.806;-70.704;2023-03-22T11:45:57;101887.53;;;24.93;56.80
250;BME280;109;19.806;-70.704;2023-03-22T11:48:27;101880.06;;;25.01;56.17
250;BME280;109;19.806;-70.704;2023-03-22T11:51:02;101878.69;;;25.15;56.38
250;BME280;109;19.806;-70.704;2023-03-22T11:53:33;101881.97;;;25.23;55.61
250;BME280;109;19.806;-70.704;2023-03-22T11:56:04;101881.75;;;25.27;55.69
250;BME280;109;19.806;-70.704;2023-03-22T12:01:04;101896.09;;;25.26;55.81
250;BME280;109;19.806;-70.704;2023-03-22T12:03:36;101892.03;;;25.39;55.72
250;BME280;109;19.806;-70.704;2023-03-22T12:06:12;101898.78;;;25.50;55.46
250;BME280;109;19.806;-70.704;2023-03-22T12:08:51;101902.38;;;25.72;55.33
250;BME280;109;19.806;-70.704;2023-03-22T12:11:40;101908.56;;;25.74;54.85
250;BME280;109;19.806;-70.704;2023-03-22T12:22:32;101919.16;;;26.00;54.41
250;BME280;109;19.806;-70.704;2023-03-22T12:25:02;101921.13;;;25.95;54.43
250;BME280;109;19.806;-70.704;2023-03-22T12:27:37;101921.06;;;25.97;54.63
250;BME280;109;19.806;-70.704;2023-03-22T12:30:24;101928.66;;;26.07;54.33
250;BME280;109;19.806;-70.704;2023-03-22T12:35:28;101927.41;;;26.38;54.31
250;BME280;109;19.806;-70.704;2023-03-22T12:38:00;101932.41;;;26.47;53.73
250;BME280;109;19.806;-70.704;2023-03-22T12:40:31;101936.38;;;26.59;53.73
250;BME280;109;19.806;-70.704;2023-03-22T12:43:21;101938.47;;;26.93;53.19
250;BME280;109;19.806;-70.704;2023-03-22T12:45:56;101935.38;;;27.02;53.29
250;BME280;109;19.806;-70.704;2023-03-22T12:48:35;101935.22;;;27.25;52.82
250;BME280;109;19.806;-70.704;2023-03-22T12:51:06;101934.28;;;27.06;52.22
250;BME280;109;19.806;-70.704;2023-03-22T12:53:46;101939.09;;;27.18;52.47
250;BME280;109;19.806;-70.704;2023-03-22T12:56:16;101933.22;;;27.10;52.13
250;BME280;109;19.806;-70.704;2023-03-22T12:58:49;101933.16;;;27.11;52.41
250;BME280;109;19.806;-70.704;2023-03-22T13:01:38;101935.31;;;27.03;52.17
250;BME280;109;19.806;-70.704;2023-03-22T13:21:17;101972.63;;;27.50;51.58
250;BME280;109;19.806;-70.704;2023-03-22T13:29:20;101977.28;;;27.65;51.42
250;BME280;109;19.806;-70.704;2023-03-22T13:32:02;101972.63;;;28.06;50.96
250;BME280;109;19.806;-70.704;2023-03-22T13:34:43;101968.47;;;28.35;50.58
250;BME280;109;19.806;-70.704;2023-03-22T13:42:40;101982.66;;;28.03;50.08
250;BME280;109;19.806;-70.704;2023-03-22T13:45:26;101976.19;;;27.69;50.57
250;BME280;109;19.806;-70.704;2023-03-22T13:48:05;101982.81;;;27.81;50.60
250;BME280;109;19.806;-70.704;2023-03-22T13:50:36;101988.38;;;27.58;50.99
250;BME280;109;19.806;-70.704;2023-03-22T13:53:06;101991.47;;;27.69;51.74
250;BME280;109;19.806;-70.704;2023-03-22T14:01:05;101984.69;;;27.98;50.97
250;BME280;109;19.806;-70.704;2023-03-22T14:03:36;101991.81;;;28.17;51.07
250;BME280;109;19.806;-70.704;2023-03-22T14:06:20;101986.72;;;28.11;51.21
250;BME280;109;19.806;-70.704;2023-03-22T14:08:51;101990.56;;;27.87;50.53
250;BME280;109;19.806;-70.704;2023-03-22T14:11:46;101991.47;;;28.06;51.50
250;BME280;109;19.806;-70.704;2023-03-22T14:14:23;101985.63;;;28.15;51.61
250;BME280;109;19.806;-70.704;2023-03-22T14:19:37;101986.94;;;28.43;51.32
250;BME280;109;19.806;-70.704;2023-03-22T14:22:18;101991.00;;;28.34;51.57
250;BME280;109;19.806;-70.704;2023-03-22T14:24:46;101990.47;;;28.26;50.90
250;BME280;109;19.806;-70.704;2023-03-22T14:27:16;101996.09;;;28.21;51.48
250;BME280;109;19.806;-70.704;2023-03-22T14:29:47;101995.38;;;28.18;51.70
250;BME280;109;19.806;-70.704;2023-03-22T14:32:16;101995.50;;;28.34;51.68
250;BME280;109;19.806;-70.704;2023-03-22T14:34:47;101986.97;;;28.24;52.58
250;BME280;109;19.806;-70.704;2023-03-22T14:37:17;102001.28;;;28.07;52.37
250;BME280;109;19.806;-70.704;2023-03-22T14:39:48;101990.22;;;27.95;53.28
250;BME280;109;19.806;-70.704;2023-03-22T14:44:50;102001.84;;;27.95;52.94
250;BME280;109;19.806;-70.704;2023-03-22T14:47:29;101991.97;;;27.77;54.54
250;BME280;109;19.806;-70.704;2023-03-22T14:50:03;101992.28;;;28.08;52.69
250;BME280;109;19.806;-70.704;2023-03-22T14:52:32;101990.22;;;27.95;53.43
250;BME280;109;19.806;-70.704;2023-03-22T14:55:05;101996.53;;;27.75;53.77
250;BME280;109;19.806;-70.704;2023-03-22T14:57:37;101992.84;;;27.77;53.70
250;BME280;109;19.806;-70.704;2023-03-22T15:00:07;101996.69;;;27.90;53.47
250;BME280;109;19.806;-70.704;2023-03-22T15:03:02;101991.28;;;27.72;53.96
250;BME280;109;19.806;-70.704;2023-03-22T15:05:36;101986.84;;;27.71;53.42
250;BME280;109;19.806;-70.704;2023-03-22T15:10:45;101984.56;;;28.01;53.28
250;BME280;109;19.806;-70.704;2023-03-22T15:13:14;101982.28;;;27.91;53.70
250;BME280;109;19.806;-70.704;2023-03-22T15:15:42;101971.00;;;27.83;53.60
250;BME280;109;19.806;-70.704;2023-03-22T15:18:16;101970.13;;;27.83;53.92
250;BME280;109;19.806;-70.704;2023-03-22T15:20:52;101978.88;;;27.88;53.04
250;BME280;109;19.806;-70.704;2023-03-22T15:23:22;101980.25;;;27.97;54.37
250;BME280;109;19.806;-70.704;2023-03-22T15:25:55;101976.31;;;27.85;54.30
250;BME280;109;19.806;-70.704;2023-03-22T15:28:30;101975.63;;;27.81;55.15
250;BME280;109;19.806;-70.704;2023-03-22T15:30:58;101972.84;;;28.02;54.43
250;BME280;109;19.806;-70.704;2023-03-22T15:33:37;101973.63;;;27.85;54.37
250;BME280;109;19.806;-70.704;2023-03-22T15:36:05;101967.88;;;27.74;53.38
250;BME280;109;19.806;-70.704;2023-03-22T15:38:36;101966.06;;;27.93;54.09
250;BME280;109;19.806;-70.704;2023-03-22T15:41:24;101953.53;;;27.56;54.49
250;BME280;109;19.806;-70.704;2023-03-22T15:44:01;101955.53;;;27.70;55.24
250;BME280;109;19.806;-70.704;2023-03-22T15:46:46;101953.69;;;27.70;55.50
250;BME280;109;19.806;-70.704;2023-03-22T15:49:17;101952.94;;;27.68;55.02